GYM weather

General José María Yáñez International Airport
Guaymas, Sonora, Mexico

Public forecast

Using degrees Celsius for public forecast. Weather courtesy of forecast.io.

METAR (pilot weather report)

Report is more than 6 hours old.

Retrieved 2019/04/21 01:40 UTC (8 hours ago):

MMGM 210140Z 25012KT 10SM SKC 25/17 A2981

TAF (pilot weather forecast)

Retrieved 2019/04/21 06:51 UTC (3 hours ago):

TAF MMGM 210448Z 2106/2206 00000KT P6SM SKC TEMPO 2110/2114 3SM BR FM211800 16010KT P6SM BKN180 BECMG 2202/2203 00000KT